sensor_id;sensor_type;location;lat;lon;timestamp;temperature;humidity
24618;DHT22;12762;51.730;5.356;2022-10-30T00:00:49;16.80;74.90
24618;DHT22;12762;51.730;5.356;2022-10-30T00:03:16;16.80;75.00
24618;DHT22;12762;51.730;5.356;2022-10-30T00:05:46;16.80;75.10
24618;DHT22;12762;51.730;5.356;2022-10-30T00:08:14;16.70;75.00
24618;DHT22;12762;51.730;5.356;2022-10-30T00:10:42;16.70;75.10
24618;DHT22;12762;51.730;5.356;2022-10-30T00:13:09;16.70;75.10
24618;DHT22;12762;51.730;5.356;2022-10-30T00:15:37;16.70;75.20
24618;DHT22;12762;51.730;5.356;2022-10-30T00:18:05;16.70;75.20
24618;DHT22;12762;51.730;5.356;2022-10-30T00:20:32;16.60;75.20
24618;DHT22;12762;51.730;5.356;2022-10-30T00:23:04;16.60;75.20
24618;DHT22;12762;51.730;5.356;2022-10-30T00:25:33;16.60;75.30
24618;DHT22;12762;51.730;5.356;2022-10-30T00:27:59;16.60;75.40
24618;DHT22;12762;51.730;5.356;2022-10-30T00:30:31;16.60;75.30
24618;DHT22;12762;51.730;5.356;2022-10-30T00:32:58;16.60;75.50
24618;DHT22;12762;51.730;5.356;2022-10-30T00:35:25;16.50;75.40
24618;DHT22;12762;51.730;5.356;2022-10-30T00:37:52;16.50;75.50
24618;DHT22;12762;51.730;5.356;2022-10-30T00:40:20;16.50;75.60
24618;DHT22;12762;51.730;5.356;2022-10-30T00:42:46;16.50;75.60
24618;DHT22;12762;51.730;5.356;2022-10-30T00:45:16;16.40;76.40
24618;DHT22;12762;51.730;5.356;2022-10-30T00:47:52;16.40;75.70
24618;DHT22;12762;51.730;5.356;2022-10-30T00:53:00;16.40;75.70
24618;DHT22;12762;51.730;5.356;2022-10-30T00:55:38;16.40;75.80
24618;DHT22;12762;51.730;5.356;2022-10-30T00:58:08;16.40;75.80
24618;DHT22;12762;51.730;5.356;2022-10-30T01:00:38;16.40;76.00
24618;DHT22;12762;51.730;5.356;2022-10-30T01:03:08;16.30;75.90
24618;DHT22;12762;51.730;5.356;2022-10-30T01:05:35;16.30;75.90
24618;DHT22;12762;51.730;5.356;2022-10-30T01:08:02;16.30;76.00
24618;DHT22;12762;51.730;5.356;2022-10-30T01:10:29;16.30;76.00
24618;DHT22;12762;51.730;5.356;2022-10-30T01:12:57;16.30;76.00
24618;DHT22;12762;51.730;5.356;2022-10-30T01:15:37;16.30;76.10
24618;DHT22;12762;51.730;5.356;2022-10-30T01:18:30;16.30;76.10
24618;DHT22;12762;51.730;5.356;2022-10-30T01:21:08;16.20;76.00
24618;DHT22;12762;51.730;5.356;2022-10-30T01:29:25;16.20;76.30
24618;DHT22;12762;51.730;5.356;2022-10-30T01:32:01;16.10;76.30
24618;DHT22;12762;51.730;5.356;2022-10-30T01:34:54;16.10;76.30
24618;DHT22;12762;51.730;5.356;2022-10-30T01:37:39;16.10;76.40
24618;DHT22;12762;51.730;5.356;2022-10-30T01:40:11;16.10;76.40
24618;DHT22;12762;51.730;5.356;2022-10-30T01:50:40;16.00;76.60
24618;DHT22;12762;51.730;5.356;2022-10-30T01:56:27;16.00;76.50
24618;DHT22;12762;51.730;5.356;2022-10-30T01:59:22;16.00;76.50
24618;DHT22;12762;51.730;5.356;2022-10-30T02:01:53;16.00;76.50
24618;DHT22;12762;51.730;5.356;2022-10-30T02:04:20;15.90;76.70
24618;DHT22;12762;51.730;5.356;2022-10-30T02:06:47;15.90;76.80
24618;DHT22;12762;51.730;5.356;2022-10-30T02:09:15;15.90;76.80
24618;DHT22;12762;51.730;5.356;2022-10-30T02:11:45;15.90;77.00
24618;DHT22;12762;51.730;5.356;2022-10-30T02:14:16;15.90;77.00
24618;DHT22;12762;51.730;5.356;2022-10-30T02:16:47;15.90;77.10
24618;DHT22;12762;51.730;5.356;2022-10-30T02:19:16;15.90;77.20
24618;DHT22;12762;51.730;5.356;2022-10-30T02:21:43;15.90;77.20
24618;DHT22;12762;51.730;5.356;2022-10-30T02:24:10;15.80;77.10
24618;DHT22;12762;51.730;5.356;2022-10-30T02:26:36;15.80;77.20
24618;DHT22;12762;51.730;5.356;2022-10-30T02:29:04;15.80;77.30
24618;DHT22;12762;51.730;5.356;2022-10-30T02:31:31;15.80;77.30
24618;DHT22;12762;51.730;5.356;2022-10-30T02:34:00;15.80;77.40
24618;DHT22;12762;51.730;5.356;2022-10-30T02:36:26;15.80;77.40
24618;DHT22;12762;51.730;5.356;2022-10-30T02:38:53;15.70;77.40
24618;DHT22;12762;51.730;5.356;2022-10-30T02:41:21;15.70;77.50
24618;DHT22;12762;51.730;5.356;2022-10-30T02:43:49;15.70;77.60
24618;DHT22;12762;51.730;5.356;2022-10-30T02:46:17;15.70;77.70
24618;DHT22;12762;51.730;5.356;2022-10-30T02:48:43;15.70;77.80
24618;DHT22;12762;51.730;5.356;2022-10-30T02:51:10;15.60;77.70
24618;DHT22;12762;51.730;5.356;2022-10-30T02:53:37;15.60;77.90
24618;DHT22;12762;51.730;5.356;2022-10-30T02:56:09;15.60;77.90
24618;DHT22;12762;51.730;5.356;2022-10-30T02:58:36;15.60;77.90
24618;DHT22;12762;51.730;5.356;2022-10-30T03:01:10;15.60;77.90
24618;DHT22;12762;51.730;5.356;2022-10-30T03:03:38;15.60;78.00
24618;DHT22;12762;51.730;5.356;2022-10-30T03:06:07;15.60;78.10
24618;DHT22;12762;51.730;5.356;2022-10-30T03:08:35;15.60;78.20
24618;DHT22;12762;51.730;5.356;2022-10-30T03:11:08;15.60;78.20
24618;DHT22;12762;51.730;5.356;2022-10-30T03:13:35;15.60;78.20
24618;DHT22;12762;51.730;5.356;2022-10-30T03:16:08;15.50;78.20
24618;DHT22;12762;51.730;5.356;2022-10-30T03:18:35;15.50;78.30
24618;DHT22;12762;51.730;5.356;2022-10-30T03:21:04;15.50;78.30
24618;DHT22;12762;51.730;5.356;2022-10-30T03:23:31;15.50;78.40
24618;DHT22;12762;51.730;5.356;2022-10-30T03:25:58;15.50;78.40
24618;DHT22;12762;51.730;5.356;2022-10-30T03:28:27;15.50;78.50
24618;DHT22;12762;51.730;5.356;2022-10-30T03:31:05;15.50;78.60
24618;DHT22;12762;51.730;5.356;2022-10-30T03:33:33;15.40;78.50
24618;DHT22;12762;51.730;5.356;2022-10-30T03:36:01;15.40;78.50
24618;DHT22;12762;51.730;5.356;2022-10-30T03:38:28;15.40;78.70
24618;DHT22;12762;51.730;5.356;2022-10-30T03:40:55;15.40;78.70
24618;DHT22;12762;51.730;5.356;2022-10-30T03:43:22;15.40;78.80
24618;DHT22;12762;51.730;5.356;2022-10-30T03:45:51;15.40;78.80
24618;DHT22;12762;51.730;5.356;2022-10-30T03:48:22;15.40;78.90
24618;DHT22;12762;51.730;5.356;2022-10-30T03:50:55;15.40;79.00
24618;DHT22;12762;51.730;5.356;2022-10-30T03:53:23;15.40;78.90
24618;DHT22;12762;51.730;5.356;2022-10-30T03:55:55;15.30;78.90
24618;DHT22;12762;51.730;5.356;2022-10-30T03:58:22;15.30;78.90
24618;DHT22;12762;51.730;5.356;2022-10-30T04:00:49;15.30;79.00
24618;DHT22;12762;51.730;5.356;2022-10-30T04:03:16;15.30;79.00
24618;DHT22;12762;51.730;5.356;2022-10-30T04:05:43;15.30;79.10
24618;DHT22;12762;51.730;5.356;2022-10-30T04:08:11;15.20;79.10
24618;DHT22;12762;51.730;5.356;2022-10-30T04:10:46;15.20;79.20
24618;DHT22;12762;51.730;5.356;2022-10-30T04:13:15;15.20;79.20
24618;DHT22;12762;51.730;5.356;2022-10-30T04:15:42;15.20;79.30
24618;DHT22;12762;51.730;5.356;2022-10-30T04:18:13;15.10;79.20
24618;DHT22;12762;51.730;5.356;2022-10-30T04:20:42;15.10;79.40
24618;DHT22;12762;51.730;5.356;2022-10-30T04:23:15;15.10;79.40
24618;DHT22;12762;51.730;5.356;2022-10-30T04:25:43;15.10;79.50
24618;DHT22;12762;51.730;5.356;2022-10-30T04:28:10;15.00;79.40
24618;DHT22;12762;51.730;5.356;2022-10-30T04:30:37;15.00;79.40
24618;DHT22;12762;51.730;5.356;2022-10-30T04:33:08;15.00;79.50
24618;DHT22;12762;51.730;5.356;2022-10-30T04:35:36;15.00;79.60
24618;DHT22;12762;51.730;5.356;2022-10-30T04:38:13;14.90;79.60
24618;DHT22;12762;51.730;5.356;2022-10-30T04:40:41;14.90;79.70
24618;DHT22;12762;51.730;5.356;2022-10-30T04:43:09;14.90;79.80
24618;DHT22;12762;51.730;5.356;2022-10-30T04:45:37;14.90;80.00
24618;DHT22;12762;51.730;5.356;2022-10-30T04:48:10;14.90;80.00
24618;DHT22;12762;51.730;5.356;2022-10-30T04:50:41;14.90;80.10
24618;DHT22;12762;51.730;5.356;2022-10-30T04:53:13;14.90;80.60
24618;DHT22;12762;51.730;5.356;2022-10-30T04:55:42;14.90;80.10
24618;DHT22;12762;51.730;5.356;2022-10-30T04:58:10;14.90;80.20
24618;DHT22;12762;51.730;5.356;2022-10-30T05:00:37;14.90;80.20
24618;DHT22;12762;51.730;5.356;2022-10-30T05:03:04;14.90;80.20
24618;DHT22;12762;51.730;5.356;2022-10-30T05:05:31;14.90;80.20
24618;DHT22;12762;51.730;5.356;2022-10-30T05:07:58;14.90;80.30
24618;DHT22;12762;51.730;5.356;2022-10-30T05:10:26;14.90;80.30
24618;DHT22;12762;51.730;5.356;2022-10-30T05:12:52;14.90;80.40
24618;DHT22;12762;51.730;5.356;2022-10-30T05:15:20;14.80;80.30
24618;DHT22;12762;51.730;5.356;2022-10-30T05:17:50;14.80;80.30
24618;DHT22;12762;51.730;5.356;2022-10-30T05:20:18;14.80;80.40
24618;DHT22;12762;51.730;5.356;2022-10-30T05:22:45;14.80;80.40
24618;DHT22;12762;51.730;5.356;2022-10-30T05:25:12;14.80;80.40
24618;DHT22;12762;51.730;5.356;2022-10-30T05:27:39;14.80;80.40
24618;DHT22;12762;51.730;5.356;2022-10-30T05:30:06;14.80;80.60
24618;DHT22;12762;51.730;5.356;2022-10-30T05:32:33;14.70;80.50
24618;DHT22;12762;51.730;5.356;2022-10-30T05:35:00;14.70;80.60
24618;DHT22;12762;51.730;5.356;2022-10-30T05:37:27;14.70;80.70
24618;DHT22;12762;51.730;5.356;2022-10-30T05:39:53;14.70;80.70
24618;DHT22;12762;51.730;5.356;2022-10-30T05:42:20;14.60;80.70
24618;DHT22;12762;51.730;5.356;2022-10-30T05:44:47;14.60;80.80
24618;DHT22;12762;51.730;5.356;2022-10-30T05:47:26;14.60;80.90
24618;DHT22;12762;51.730;5.356;2022-10-30T05:49:53;14.60;80.90
24618;DHT22;12762;51.730;5.356;2022-10-30T05:52:20;14.50;80.90
24618;DHT22;12762;51.730;5.356;2022-10-30T05:54:47;14.50;81.00
24618;DHT22;12762;51.730;5.356;2022-10-30T05:57:13;14.50;81.00
24618;DHT22;12762;51.730;5.356;2022-10-30T05:59:40;14.50;81.10
24618;DHT22;12762;51.730;5.356;2022-10-30T06:02:07;14.40;81.10
24618;DHT22;12762;51.730;5.356;2022-10-30T06:04:34;14.40;81.20
24618;DHT22;12762;51.730;5.356;2022-10-30T06:07:03;14.40;81.20
24618;DHT22;12762;51.730;5.356;2022-10-30T06:09:30;14.40;81.20
24618;DHT22;12762;51.730;5.356;2022-10-30T06:11:57;14.40;81.30
24618;DHT22;12762;51.730;5.356;2022-10-30T06:14:24;14.30;81.30
24618;DHT22;12762;51.730;5.356;2022-10-30T06:16:51;14.30;82.20
24618;DHT22;12762;51.730;5.356;2022-10-30T06:19:18;14.30;81.40
24618;DHT22;12762;51.730;5.356;2022-10-30T06:21:47;14.30;81.50
24618;DHT22;12762;51.730;5.356;2022-10-30T06:24:14;14.30;81.60
24618;DHT22;12762;51.730;5.356;2022-10-30T06:26:40;14.30;81.70
24618;DHT22;12762;51.730;5.356;2022-10-30T06:29:07;14.20;81.70
24618;DHT22;12762;51.730;5.356;2022-10-30T06:31:34;14.20;81.70
24618;DHT22;12762;51.730;5.356;2022-10-30T06:34:01;14.20;81.80
24618;DHT22;12762;51.730;5.356;2022-10-30T06:36:28;14.20;81.80
24618;DHT22;12762;51.730;5.356;2022-10-30T06:38:55;14.20;81.80
24618;DHT22;12762;51.730;5.356;2022-10-30T06:41:22;14.10;81.70
24618;DHT22;12762;51.730;5.356;2022-10-30T06:43:55;14.20;81.90
24618;DHT22;12762;51.730;5.356;2022-10-30T06:46:22;14.10;82.60
24618;DHT22;12762;51.730;5.356;2022-10-30T06:48:56;14.10;81.90
24618;DHT22;12762;51.730;5.356;2022-10-30T06:51:23;14.10;82.00
24618;DHT22;12762;51.730;5.356;2022-10-30T06:53:50;14.10;82.00
24618;DHT22;12762;51.730;5.356;2022-10-30T06:56:17;14.10;82.10
24618;DHT22;12762;51.730;5.356;2022-10-30T06:58:43;14.10;82.10
24618;DHT22;12762;51.730;5.356;2022-10-30T07:01:10;14.10;82.10
24618;DHT22;12762;51.730;5.356;2022-10-30T07:03:37;14.10;82.10
24618;DHT22;12762;51.730;5.356;2022-10-30T07:06:04;14.10;82.10
24618;DHT22;12762;51.730;5.356;2022-10-30T07:08:31;14.10;82.10
24618;DHT22;12762;51.730;5.356;2022-10-30T07:10:58;14.10;82.10
24618;DHT22;12762;51.730;5.356;2022-10-30T07:13:27;14.20;82.20
24618;DHT22;12762;51.730;5.356;2022-10-30T07:15:54;14.20;82.20
24618;DHT22;12762;51.730;5.356;2022-10-30T07:18:21;14.20;82.20
24618;DHT22;12762;51.730;5.356;2022-10-30T07:20:53;14.20;82.30
24618;DHT22;12762;51.730;5.356;2022-10-30T07:23:32;14.30;82.50
24618;DHT22;12762;51.730;5.356;2022-10-30T07:25:59;14.30;82.50
24618;DHT22;12762;51.730;5.356;2022-10-30T07:28:30;14.30;82.40
24618;DHT22;12762;51.730;5.356;2022-10-30T07:30:57;14.30;82.40
24618;DHT22;12762;51.730;5.356;2022-10-30T07:33:24;14.40;82.50
24618;DHT22;12762;51.730;5.356;2022-10-30T07:35:51;14.40;82.40
24618;DHT22;12762;51.730;5.356;2022-10-30T07:38:18;14.40;82.40
24618;DHT22;12762;51.730;5.356;2022-10-30T07:40:51;14.40;82.40
24618;DHT22;12762;51.730;5.356;2022-10-30T07:43:19;14.50;82.50
24618;DHT22;12762;51.730;5.356;2022-10-30T07:45:45;14.50;82.40
24618;DHT22;12762;51.730;5.356;2022-10-30T07:48:15;14.60;82.50
24618;DHT22;12762;51.730;5.356;2022-10-30T07:50:42;14.60;82.50
24618;DHT22;12762;51.730;5.356;2022-10-30T07:53:08;14.60;82.40
24618;DHT22;12762;51.730;5.356;2022-10-30T07:55:35;14.70;82.50
24618;DHT22;12762;51.730;5.356;2022-10-30T07:58:02;14.70;82.50
24618;DHT22;12762;51.730;5.356;2022-10-30T08:00:29;14.80;82.60
24618;DHT22;12762;51.730;5.356;2022-10-30T08:03:05;14.80;82.50
24618;DHT22;12762;51.730;5.356;2022-10-30T08:05:32;14.90;82.60
24618;DHT22;12762;51.730;5.356;2022-10-30T08:07:58;15.20;83.10
24618;DHT22;12762;51.730;5.356;2022-10-30T08:10:26;15.80;83.20
24618;DHT22;12762;51.730;5.356;2022-10-30T08:12:53;16.40;82.70
24618;DHT22;12762;51.730;5.356;2022-10-30T08:15:20;17.00;82.00
24618;DHT22;12762;51.730;5.356;2022-10-30T08:17:48;17.80;81.20
24618;DHT22;12762;51.730;5.356;2022-10-30T08:20:17;18.60;79.70
24618;DHT22;12762;51.730;5.356;2022-10-30T08:22:49;19.10;78.00
24618;DHT22;12762;51.730;5.356;2022-10-30T08:25:18;19.40;76.80
24618;DHT22;12762;51.730;5.356;2022-10-30T08:27:57;19.80;76.10
24618;DHT22;12762;51.730;5.356;2022-10-30T08:30:29;20.10;75.80
24618;DHT22;12762;51.730;5.356;2022-10-30T08:33:00;20.40;74.70
24618;DHT22;12762;51.730;5.356;2022-10-30T08:35:28;20.70;73.90
24618;DHT22;12762;51.730;5.356;2022-10-30T08:37:56;20.90;73.30
24618;DHT22;12762;51.730;5.356;2022-10-30T08:40:24;20.80;72.70
24618;DHT22;12762;51.730;5.356;2022-10-30T08:42:53;20.60;72.50
24618;DHT22;12762;51.730;5.356;2022-10-30T08:45:21;20.30;72.60
24618;DHT22;12762;51.730;5.356;2022-10-30T08:47:58;20.00;72.80
24618;DHT22;12762;51.730;5.356;2022-10-30T08:50:27;19.80;73.40
24618;DHT22;12762;51.730;5.356;2022-10-30T08:52:53;19.60;73.90
24618;DHT22;12762;51.730;5.356;2022-10-30T08:55:20;19.40;74.20
24618;DHT22;12762;51.730;5.356;2022-10-30T08:57:48;19.30;74.70
24618;DHT22;12762;51.730;5.356;2022-10-30T09:00:15;19.20;75.00
24618;DHT22;12762;51.730;5.356;2022-10-30T09:02:42;19.10;75.20
24618;DHT22;12762;51.730;5.356;2022-10-30T09:05:10;19.10;76.50
24618;DHT22;12762;51.730;5.356;2022-10-30T09:07:37;19.10;76.00
24618;DHT22;12762;51.730;5.356;2022-10-30T09:10:05;19.10;76.00
24618;DHT22;12762;51.730;5.356;2022-10-30T09:12:32;19.10;76.30
24618;DHT22;12762;51.730;5.356;2022-10-30T09:14:59;19.20;76.50
24618;DHT22;12762;51.730;5.356;2022-10-30T09:17:25;19.20;76.20
24618;DHT22;12762;51.730;5.356;2022-10-30T09:19:52;19.20;76.20
24618;DHT22;12762;51.730;5.356;2022-10-30T09:22:19;19.30;76.20
24618;DHT22;12762;51.730;5.356;2022-10-30T09:24:47;19.30;76.10
24618;DHT22;12762;51.730;5.356;2022-10-30T09:27:14;19.40;76.10
24618;DHT22;12762;51.730;5.356;2022-10-30T09:29:41;19.50;76.10
24618;DHT22;12762;51.730;5.356;2022-10-30T09:32:08;19.50;75.90
24618;DHT22;12762;51.730;5.356;2022-10-30T09:34:36;19.60;76.00
24618;DHT22;12762;51.730;5.356;2022-10-30T09:37:04;19.70;76.10
24618;DHT22;12762;51.730;5.356;2022-10-30T09:39:30;19.70;75.80
24618;DHT22;12762;51.730;5.356;2022-10-30T09:50:40;20.00;75.60
24618;DHT22;12762;51.730;5.356;2022-10-30T09:56:07;20.30;75.60
24618;DHT22;12762;51.730;5.356;2022-10-30T10:01:42;20.60;75.20
24618;DHT22;12762;51.730;5.356;2022-10-30T10:06:59;20.80;74.60
24618;DHT22;12762;51.730;5.356;2022-10-30T10:09:32;20.90;74.40
24618;DHT22;12762;51.730;5.356;2022-10-30T10:12:22;21.00;74.10
24618;DHT22;12762;51.730;5.356;2022-10-30T10:14:53;21.10;74.20
24618;DHT22;12762;51.730;5.356;2022-10-30T10:17:30;21.10;73.90
24618;DHT22;12762;51.730;5.356;2022-10-30T10:20:00;21.20;74.10
24618;DHT22;12762;51.730;5.356;2022-10-30T10:25:15;21.60;73.90
24618;DHT22;12762;51.730;5.356;2022-10-30T10:28:15;21.80;73.30
24618;DHT22;12762;51.730;5.356;2022-10-30T10:30:58;21.80;73.10
24618;DHT22;12762;51.730;5.356;2022-10-30T10:36:49;22.10;72.40
24618;DHT22;12762;51.730;5.356;2022-10-30T10:50:46;22.50;71.30
24618;DHT22;12762;51.730;5.356;2022-10-30T10:53:20;22.60;71.00
24618;DHT22;12762;51.730;5.356;2022-10-30T10:55:51;22.70;70.70
24618;DHT22;12762;51.730;5.356;2022-10-30T10:58:32;22.80;70.70
24618;DHT22;12762;51.730;5.356;2022-10-30T11:01:05;22.90;69.70
24618;DHT22;12762;51.730;5.356;2022-10-30T11:03:49;22.90;69.80
24618;DHT22;12762;51.730;5.356;2022-10-30T11:06:26;23.00;69.60
24618;DHT22;12762;51.730;5.356;2022-10-30T11:11:39;23.10;69.30
24618;DHT22;12762;51.730;5.356;2022-10-30T11:14:20;23.10;69.50
24618;DHT22;12762;51.730;5.356;2022-10-30T11:19:38;23.30;68.60
24618;DHT22;12762;51.730;5.356;2022-10-30T11:22:33;23.40;68.50
24618;DHT22;12762;51.730;5.356;2022-10-30T11:25:21;23.40;68.90
24618;DHT22;12762;51.730;5.356;2022-10-30T11:27:58;23.60;69.10
24618;DHT22;12762;51.730;5.356;2022-10-30T11:30:26;23.70;68.30
24618;DHT22;12762;51.730;5.356;2022-10-30T11:32:58;23.80;67.80
24618;DHT22;12762;51.730;5.356;2022-10-30T11:35:25;23.90;67.50
24618;DHT22;12762;51.730;5.356;2022-10-30T11:38:12;23.90;67.00
24618;DHT22;12762;51.730;5.356;2022-10-30T11:40:46;23.90;67.30
24618;DHT22;12762;51.730;5.356;2022-10-30T11:43:18;23.90;66.80
24618;DHT22;12762;51.730;5.356;2022-10-30T11:45:45;23.90;66.50
24618;DHT22;12762;51.730;5.356;2022-10-30T11:48:21;24.00;66.60
24618;DHT22;12762;51.730;5.356;2022-10-30T11:50:58;24.00;66.10
24618;DHT22;12762;51.730;5.356;2022-10-30T11:53:34;23.90;65.90
24618;DHT22;12762;51.730;5.356;2022-10-30T11:56:15;23.90;66.00
24618;DHT22;12762;51.730;5.356;2022-10-30T11:58:55;23.90;66.00
24618;DHT22;12762;51.730;5.356;2022-10-30T12:01:33;23.90;66.00
24618;DHT22;12762;51.730;5.356;2022-10-30T12:04:33;23.90;65.80
24618;DHT22;12762;51.730;5.356;2022-10-30T12:07:10;23.90;66.30
24618;DHT22;12762;51.730;5.356;2022-10-30T12:09:46;23.80;65.80
24618;DHT22;12762;51.730;5.356;2022-10-30T12:12:36;23.70;65.60
24618;DHT22;12762;51.730;5.356;2022-10-30T12:17:40;23.50;65.70
24618;DHT22;12762;51.730;5.356;2022-10-30T12:20:15;23.40;65.90
24618;DHT22;12762;51.730;5.356;2022-10-30T12:22:42;23.40;66.00
24618;DHT22;12762;51.730;5.356;2022-10-30T12:25:29;23.40;66.10
24618;DHT22;12762;51.730;5.356;2022-10-30T12:28:03;23.30;66.30
24618;DHT22;12762;51.730;5.356;2022-10-30T12:30:34;23.20;66.20
24618;DHT22;12762;51.730;5.356;2022-10-30T12:33:07;23.10;67.10
24618;DHT22;12762;51.730;5.356;2022-10-30T12:38:05;22.90;66.50
24618;DHT22;12762;51.730;5.356;2022-10-30T12:40:40;22.90;66.70
24618;DHT22;12762;51.730;5.356;2022-10-30T12:43:21;22.90;66.50
24618;DHT22;12762;51.730;5.356;2022-10-30T12:46:26;22.90;66.70
24618;DHT22;12762;51.730;5.356;2022-10-30T12:49:14;22.80;66.40
24618;DHT22;12762;51.730;5.356;2022-10-30T12:54:30;22.70;66.60
24618;DHT22;12762;51.730;5.356;2022-10-30T12:57:14;22.70;66.40
24618;DHT22;12762;51.730;5.356;2022-10-30T13:02:58;22.60;66.60
24618;DHT22;12762;51.730;5.356;2022-10-30T13:08:01;22.60;66.50
24618;DHT22;12762;51.730;5.356;2022-10-30T13:10:41;22.70;66.50
24618;DHT22;12762;51.730;5.356;2022-10-30T13:13:18;22.70;66.30
24618;DHT22;12762;51.730;5.356;2022-10-30T13:15:49;22.80;66.10
24618;DHT22;12762;51.730;5.356;2022-10-30T13:18:22;22.80;65.70
24618;DHT22;12762;51.730;5.356;2022-10-30T13:21:00;22.80;65.50
24618;DHT22;12762;51.730;5.356;2022-10-30T13:28:59;22.60;65.50
24618;DHT22;12762;51.730;5.356;2022-10-30T13:37:45;22.30;65.80
24618;DHT22;12762;51.730;5.356;2022-10-30T13:40:26;22.20;66.20
24618;DHT22;12762;51.730;5.356;2022-10-30T13:46:04;22.10;66.40
24618;DHT22;12762;51.730;5.356;2022-10-30T13:51:26;22.10;66.20
24618;DHT22;12762;51.730;5.356;2022-10-30T13:54:18;22.10;66.20
24618;DHT22;12762;51.730;5.356;2022-10-30T13:56:47;22.10;66.30
24618;DHT22;12762;51.730;5.356;2022-10-30T14:02:37;22.10;66.60
24618;DHT22;12762;51.730;5.356;2022-10-30T14:08:06;22.10;66.80
24618;DHT22;12762;51.730;5.356;2022-10-30T14:10:44;22.10;66.80
24618;DHT22;12762;51.730;5.356;2022-10-30T14:13:46;22.10;66.60
24618;DHT22;12762;51.730;5.356;2022-10-30T14:17:18;22.20;66.90
24618;DHT22;12762;51.730;5.356;2022-10-30T14:19:19;22.20;66.70
24618;DHT22;12762;51.730;5.356;2022-10-30T14:21:56;22.20;66.50
24618;DHT22;12762;51.730;5.356;2022-10-30T14:24:27;22.20;66.50
24618;DHT22;12762;51.730;5.356;2022-10-30T14:37:11;22.10;66.20
24618;DHT22;12762;51.730;5.356;2022-10-30T14:39:43;22.00;66.10
24618;DHT22;12762;51.730;5.356;2022-10-30T14:45:11;22.00;66.50
24618;DHT22;12762;51.730;5.356;2022-10-30T14:56:37;21.80;66.30
24618;DHT22;12762;51.730;5.356;2022-10-30T15:05:08;21.70;66.40
24618;DHT22;12762;51.730;5.356;2022-10-30T15:07:59;21.60;66.50
24618;DHT22;12762;51.730;5.356;2022-10-30T15:10:34;21.50;66.40
24618;DHT22;12762;51.730;5.356;2022-10-30T15:15:40;21.50;66.60
24618;DHT22;12762;51.730;5.356;2022-10-30T15:18:14;21.40;66.80
24618;DHT22;12762;51.730;5.356;2022-10-30T15:20:41;21.40;66.80
24618;DHT22;12762;51.730;5.356;2022-10-30T15:23:14;21.30;66.80
24618;DHT22;12762;51.730;5.356;2022-10-30T15:25:52;21.30;66.90
24618;DHT22;12762;51.730;5.356;2022-10-30T15:28:23;21.20;67.00
24618;DHT22;12762;51.730;5.356;2022-10-30T15:31:05;21.20;67.20
24618;DHT22;12762;51.730;5.356;2022-10-30T15:33:34;21.10;67.20
24618;DHT22;12762;51.730;5.356;2022-10-30T15:36:04;21.00;67.30
24618;DHT22;12762;51.730;5.356;2022-10-30T15:38:31;21.00;67.60
24618;DHT22;12762;51.730;5.356;2022-10-30T15:41:00;20.90;67.70
24618;DHT22;12762;51.730;5.356;2022-10-30T15:43:33;20.80;67.80
24618;DHT22;12762;51.730;5.356;2022-10-30T15:46:06;20.80;68.10
24618;DHT22;12762;51.730;5.356;2022-10-30T15:48:33;20.70;68.20
24618;DHT22;12762;51.730;5.356;2022-10-30T15:51:19;20.60;68.40
24618;DHT22;12762;51.730;5.356;2022-10-30T15:53:52;20.60;68.50
24618;DHT22;12762;51.730;5.356;2022-10-30T15:56:28;20.50;68.70
24618;DHT22;12762;51.730;5.356;2022-10-30T15:59:04;20.40;68.80
24618;DHT22;12762;51.730;5.356;2022-10-30T16:01:42;20.30;69.10
24618;DHT22;12762;51.730;5.356;2022-10-30T16:06:55;20.10;69.60
24618;DHT22;12762;51.730;5.356;2022-10-30T16:09:24;20.00;69.70
24618;DHT22;12762;51.730;5.356;2022-10-30T16:11:53;19.80;69.90
24618;DHT22;12762;51.730;5.356;2022-10-30T16:14:25;19.70;70.20
24618;DHT22;12762;51.730;5.356;2022-10-30T16:16:59;19.70;70.40
24618;DHT22;12762;51.730;5.356;2022-10-30T16:19:28;19.50;70.40
24618;DHT22;12762;51.730;5.356;2022-10-30T16:21:57;19.40;70.50
24618;DHT22;12762;51.730;5.356;2022-10-30T16:24:30;19.40;70.70
24618;DHT22;12762;51.730;5.356;2022-10-30T16:27:06;19.30;70.70
24618;DHT22;12762;51.730;5.356;2022-10-30T16:29:39;19.20;70.60
24618;DHT22;12762;51.730;5.356;2022-10-30T16:32:15;19.10;70.70
24618;DHT22;12762;51.730;5.356;2022-10-30T16:34:44;19.10;70.90
24618;DHT22;12762;51.730;5.356;2022-10-30T16:37:19;19.00;71.10
24618;DHT22;12762;51.730;5.356;2022-10-30T16:39:49;18.90;71.10
24618;DHT22;12762;51.730;5.356;2022-10-30T16:42:20;18.90;71.40
24618;DHT22;12762;51.730;5.356;2022-10-30T16:45:04;18.80;71.50
24618;DHT22;12762;51.730;5.356;2022-10-30T16:47:37;18.70;71.70
24618;DHT22;12762;51.730;5.356;2022-10-30T16:50:05;18.70;71.80
24618;DHT22;12762;51.730;5.356;2022-10-30T16:52:33;18.60;71.90
24618;DHT22;12762;51.730;5.356;2022-10-30T16:55:18;18.50;72.10
24618;DHT22;12762;51.730;5.356;2022-10-30T16:57:51;18.50;72.20
24618;DHT22;12762;51.730;5.356;2022-10-30T17:00:20;18.50;72.40
24618;DHT22;12762;51.730;5.356;2022-10-30T17:02:54;18.40;72.50
24618;DHT22;12762;51.730;5.356;2022-10-30T17:05:28;18.40;72.70
24618;DHT22;12762;51.730;5.356;2022-10-30T17:08:00;18.40;72.80
24618;DHT22;12762;51.730;5.356;2022-10-30T17:10:35;18.40;72.80
24618;DHT22;12762;51.730;5.356;2022-10-30T17:15:56;18.30;72.70
24618;DHT22;12762;51.730;5.356;2022-10-30T17:18:28;18.30;73.00
24618;DHT22;12762;51.730;5.356;2022-10-30T17:21:10;18.30;73.10
24618;DHT22;12762;51.730;5.356;2022-10-30T17:23:47;18.30;73.10
24618;DHT22;12762;51.730;5.356;2022-10-30T17:26:15;18.30;73.30
24618;DHT22;12762;51.730;5.356;2022-10-30T17:28:43;18.30;73.30
24618;DHT22;12762;51.730;5.356;2022-10-30T17:34:16;18.20;73.20
24618;DHT22;12762;51.730;5.356;2022-10-30T17:36:45;18.20;73.30
24618;DHT22;12762;51.730;5.356;2022-10-30T17:39:12;18.20;73.40
24618;DHT22;12762;51.730;5.356;2022-10-30T17:41:39;18.20;73.40
24618;DHT22;12762;51.730;5.356;2022-10-30T17:44:18;18.20;73.40
24618;DHT22;12762;51.730;5.356;2022-10-30T17:46:46;18.10;73.40
24618;DHT22;12762;51.730;5.356;2022-10-30T17:49:23;18.10;73.50
24618;DHT22;12762;51.730;5.356;2022-10-30T17:51:50;18.00;73.60
24618;DHT22;12762;51.730;5.356;2022-10-30T17:54:17;18.00;73.70
24618;DHT22;12762;51.730;5.356;2022-10-30T17:56:44;18.00;73.90
24618;DHT22;12762;51.730;5.356;2022-10-30T17:59:10;17.90;73.90
24618;DHT22;12762;51.730;5.356;2022-10-30T18:01:37;17.90;74.10
24618;DHT22;12762;51.730;5.356;2022-10-30T18:04:17;17.80;74.20
24618;DHT22;12762;51.730;5.356;2022-10-30T18:06:50;17.80;74.30
24618;DHT22;12762;51.730;5.356;2022-10-30T18:09:16;17.70;74.40
24618;DHT22;12762;51.730;5.356;2022-10-30T18:11:43;17.70;74.50